Kynouria — V7VY6 — position and weather

sailwx.info

Track history (hours):
 
Tides and Currents Weather Stations Pressure Air Temp Water Temp Dewpoint Dewpoint Depression Visibility Wind Speed Wind Dir Waves Ship Positions

Kynouria

Last reported at 2016-Jun-27 23:33 UTC. Time now 2016-Jul-01 11:44 UTC.
Position S 28°40' E 033°12'.

Length 229 m; draft 13.7 m.

Type: Ship. MMSI: 538004243.

Date/timePositionNaut miles runAvg speedWind from/ knotsBaromVisibWave heightAir tempDewpointWater temp
2016-Jun-27 23:33S 28°40' E 033°12'1110.6
2016-Jun-27 22:33S 28°42' E 032°60'1010.0
2016-Jun-27 21:33S 28°44' E 032°49'10 9.7
2016-Jun-27 20:33S 28°46' E 032°38'9 9.3
2016-Jun-27 19:33S 28°49' E 032°28'9 9.2
2016-Jun-27 18:33S 28°52' E 032°18'8 7.7
2016-Jun-27 17:30S 28°55' E 032°09'0 0.1
2016-Jun-27 16:33S 28°55' E 032°09'0 0.0
2016-Jun-27 15:33S 28°55' E 032°09'0 0.0
2016-Jun-27 14:33S 28°55' E 032°09'0 0.0
2016-Jun-27 13:30S 28°55' E 032°09'0 0.0
2016-Jun-27 12:12S 28°55' E 032°09'0 0.0
2016-Jun-27 11:33S 28°55' E 032°09'0 0.0
2016-Jun-27 10:30S 28°55' E 032°09'0 0.0
2016-Jun-27 09:30S 28°55' E 032°09'0 0.0
2016-Jun-27 08:33S 28°55' E 032°09'0 0.0
2016-Jun-27 07:33S 28°55' E 032°09'0 0.0
2016-Jun-27 06:33S 28°55' E 032°09'0 0.0
2016-Jun-27 05:30S 28°55' E 032°09'0 0.0
2016-Jun-27 04:33S 28°55' E 032°09'0 0.0
2016-Jun-27 03:33S 28°55' E 032°09'0 0.0
2016-Jun-27 02:33S 28°55' E 032°09'0 0.0
2016-Jun-27 01:30S 28°55' E 032°09'0 0.0
2016-Jun-27 00:33S 28°55' E 032°09'0 0.0
2016-Jun-26 23:33S 28°55' E 032°09'0 0.0
2016-Jun-26 22:33S 28°55' E 032°09'0 0.0
2016-Jun-26 21:33S 28°55' E 032°09'0 0.0
2016-Jun-26 20:33S 28°55' E 032°09'0 0.0
2016-Jun-26 19:33S 28°55' E 032°09'0 0.0
2016-Jun-26 18:33S 28°55' E 032°09'0 0.0
2016-Jun-26 17:33S 28°55' E 032°09'0 0.0
2016-Jun-26 16:33S 28°55' E 032°09'  
2016-Jun-20 04:28S 28°48' E 032°03'0 0.0
2016-Jun-20 00:28S 28°48' E 032°03'0 0.0
2016-Jun-19 23:28S 28°48' E 032°03'0 0.0
2016-Jun-19 22:28S 28°48' E 032°03'0 0.0
2016-Jun-19 21:31S 28°48' E 032°03'0 0.0
2016-Jun-19 20:31S 28°48' E 032°03'0 0.0
2016-Jun-19 19:34S 28°48' E 032°03'6 6.2
2016-Jun-19 18:33S 28°52' E 032°08'1 1.0
2016-Jun-19 17:33S 28°53' E 032°09'2 2.3
2016-Jun-19 16:32S 28°53' E 032°11'0 0.0
2016-Jun-19 15:32S 28°53' E 032°11'0 0.0
2016-Jun-19 14:32S 28°53' E 032°11'0 0.0
2016-Jun-19 13:32S 28°53' E 032°11'0 0.0
2016-Jun-19 12:32S 28°53' E 032°11'0 0.0
2016-Jun-19 11:32S 28°53' E 032°11'0 0.0
2016-Jun-19 10:29S 28°53' E 032°11'0 0.0
2016-Jun-19 09:29S 28°53' E 032°11'0 0.0
2016-Jun-19 08:32S 28°53' E 032°11'0 0.0
2016-Jun-19 07:29S 28°53' E 032°11'0 0.0
2016-Jun-19 06:32S 28°53' E 032°11'0 0.0
2016-Jun-19 05:29S 28°53' E 032°11'0 0.1
2016-Jun-19 04:32S 28°53' E 032°11'0 0.0
2016-Jun-19 03:32S 28°53' E 032°11'0 0.0
2016-Jun-19 02:32S 28°53' E 032°11'0 0.0
2016-Jun-19 01:29S 28°53' E 032°11'0 0.0
2016-Jun-19 00:32S 28°53' E 032°11'0 0.0
2016-Jun-18 23:32S 28°53' E 032°11'0 0.0
2016-Jun-18 22:32S 28°53' E 032°11'0 0.1
2016-Jun-18 21:32S 28°54' E 032°11'0 0.0
2016-Jun-18 20:29S 28°53' E 032°11'0 0.1
2016-Jun-18 19:32S 28°53' E 032°11'0 0.0
2016-Jun-18 18:29S 28°53' E 032°11'0 0.0
2016-Jun-18 17:29S 28°53' E 032°11'0 0.0
2016-Jun-18 16:32S 28°53' E 032°11'0 0.0
2016-Jun-18 15:32S 28°53' E 032°11'0 0.0
2016-Jun-18 14:32S 28°53' E 032°11'0 0.0
2016-Jun-18 13:32S 28°53' E 032°11'0 0.0
2016-Jun-18 12:32S 28°53' E 032°11'0 0.0
2016-Jun-18 11:32S 28°53' E 032°11'0 0.0
2016-Jun-18 10:32S 28°53' E 032°11'0 0.0
2016-Jun-18 09:29S 28°53' E 032°11'0 0.0
2016-Jun-18 08:29S 28°53' E 032°11'0 0.0
2016-Jun-18 07:29S 28°53' E 032°11'0 0.0
2016-Jun-18 06:29S 28°53' E 032°11'0 0.0
2016-Jun-18 05:32S 28°53' E 032°11'0 0.0
2016-Jun-18 04:29S 28°53' E 032°11'0 0.0
2016-Jun-18 03:32S 28°53' E 032°11'  
Track history (hours):
 
Tides and Currents Weather Stations Pressure Air Temp Water Temp Dewpoint Dewpoint Depression Visibility Wind Speed Wind Dir Waves Ship Positions

Kynouria

Last reported at 2016-Jun-27 23:33 UTC. Time now 2016-Jul-01 11:44 UTC.
Position S 28°40' E 033°12'.

Length 229 m; draft 13.7 m.

Type: Ship. MMSI: 538004243.

Date/timePositionNaut miles runAvg speedWind from/ knotsBaromVisibWave heightAir tempDewpointWater temp
2016-Jun-27 23:33S 28°40' E 033°12'1110.6
2016-Jun-27 22:33S 28°42' E 032°60'1010.0
2016-Jun-27 21:33S 28°44' E 032°49'10 9.7
2016-Jun-27 20:33S 28°46' E 032°38'9 9.3
2016-Jun-27 19:33S 28°49' E 032°28'9 9.2
2016-Jun-27 18:33S 28°52' E 032°18'8 7.7
2016-Jun-27 17:30S 28°55' E 032°09'0 0.1
2016-Jun-27 16:33S 28°55' E 032°09'0 0.0
2016-Jun-27 15:33S 28°55' E 032°09'0 0.0
2016-Jun-27 14:33S 28°55' E 032°09'0 0.0
2016-Jun-27 13:30S 28°55' E 032°09'0 0.0
2016-Jun-27 12:12S 28°55' E 032°09'0 0.0
2016-Jun-27 11:33S 28°55' E 032°09'0 0.0
2016-Jun-27 10:30S 28°55' E 032°09'0 0.0
2016-Jun-27 09:30S 28°55' E 032°09'0 0.0
2016-Jun-27 08:33S 28°55' E 032°09'0 0.0
2016-Jun-27 07:33S 28°55' E 032°09'0 0.0
2016-Jun-27 06:33S 28°55' E 032°09'0 0.0
2016-Jun-27 05:30S 28°55' E 032°09'0 0.0
2016-Jun-27 04:33S 28°55' E 032°09'0 0.0
2016-Jun-27 03:33S 28°55' E 032°09'0 0.0
2016-Jun-27 02:33S 28°55' E 032°09'0 0.0
2016-Jun-27 01:30S 28°55' E 032°09'0 0.0
2016-Jun-27 00:33S 28°55' E 032°09'0 0.0
2016-Jun-26 23:33S 28°55' E 032°09'0 0.0
2016-Jun-26 22:33S 28°55' E 032°09'0 0.0
2016-Jun-26 21:33S 28°55' E 032°09'0 0.0
2016-Jun-26 20:33S 28°55' E 032°09'0 0.0
2016-Jun-26 19:33S 28°55' E 032°09'0 0.0
2016-Jun-26 18:33S 28°55' E 032°09'0 0.0
2016-Jun-26 17:33S 28°55' E 032°09'0 0.0
2016-Jun-26 16:33S 28°55' E 032°09'  
2016-Jun-20 04:28S 28°48' E 032°03'0 0.0
2016-Jun-20 00:28S 28°48' E 032°03'0 0.0
2016-Jun-19 23:28S 28°48' E 032°03'0 0.0
2016-Jun-19 22:28S 28°48' E 032°03'0 0.0
2016-Jun-19 21:31S 28°48' E 032°03'0 0.0
2016-Jun-19 20:31S 28°48' E 032°03'0 0.0
2016-Jun-19 19:34S 28°48' E 032°03'6 6.2
2016-Jun-19 18:33S 28°52' E 032°08'1 1.0
2016-Jun-19 17:33S 28°53' E 032°09'2 2.3
2016-Jun-19 16:32S 28°53' E 032°11'0 0.0
2016-Jun-19 15:32S 28°53' E 032°11'0 0.0
2016-Jun-19 14:32S 28°53' E 032°11'0 0.0
2016-Jun-19 13:32S 28°53' E 032°11'0 0.0
2016-Jun-19 12:32S 28°53' E 032°11'0 0.0
2016-Jun-19 11:32S 28°53' E 032°11'0 0.0
2016-Jun-19 10:29S 28°53' E 032°11'0 0.0
2016-Jun-19 09:29S 28°53' E 032°11'0 0.0
2016-Jun-19 08:32S 28°53' E 032°11'0 0.0
2016-Jun-19 07:29S 28°53' E 032°11'0 0.0
2016-Jun-19 06:32S 28°53' E 032°11'0 0.0
2016-Jun-19 05:29S 28°53' E 032°11'0 0.1
2016-Jun-19 04:32S 28°53' E 032°11'0 0.0
2016-Jun-19 03:32S 28°53' E 032°11'0 0.0
2016-Jun-19 02:32S 28°53' E 032°11'0 0.0
2016-Jun-19 01:29S 28°53' E 032°11'0 0.0
2016-Jun-19 00:32S 28°53' E 032°11'0 0.0
2016-Jun-18 23:32S 28°53' E 032°11'0 0.0
2016-Jun-18 22:32S 28°53' E 032°11'0 0.1
2016-Jun-18 21:32S 28°54' E 032°11'0 0.0
2016-Jun-18 20:29S 28°53' E 032°11'0 0.1
2016-Jun-18 19:32S 28°53' E 032°11'0 0.0
2016-Jun-18 18:29S 28°53' E 032°11'0 0.0
2016-Jun-18 17:29S 28°53' E 032°11'0 0.0
2016-Jun-18 16:32S 28°53' E 032°11'0 0.0
2016-Jun-18 15:32S 28°53' E 032°11'0 0.0
2016-Jun-18 14:32S 28°53' E 032°11'0 0.0
2016-Jun-18 13:32S 28°53' E 032°11'0 0.0
2016-Jun-18 12:32S 28°53' E 032°11'0 0.0
2016-Jun-18 11:32S 28°53' E 032°11'0 0.0
2016-Jun-18 10:32S 28°53' E 032°11'0 0.0
2016-Jun-18 09:29S 28°53' E 032°11'0 0.0
2016-Jun-18 08:29S 28°53' E 032°11'0 0.0
2016-Jun-18 07:29S 28°53' E 032°11'0 0.0
2016-Jun-18 06:29S 28°53' E 032°11'0 0.0
2016-Jun-18 05:32S 28°53' E 032°11'0 0.0
2016-Jun-18 04:29S 28°53' E 032°11'0 0.0
2016-Jun-18 03:32S 28°53' E 032°11'  

Dump ship's entire track history